createdAt,value
2022-09-28T00:02:19.775Z,5.90
2022-09-28T00:04:48.189Z,6.40
2022-09-28T00:07:16.352Z,6.10
2022-09-28T00:09:44.293Z,6.00
2022-09-28T00:12:12.260Z,6.80
2022-09-28T00:14:43.050Z,6.20
2022-09-28T00:17:12.530Z,7.10
2022-09-28T00:19:40.609Z,5.70
2022-09-28T00:22:10.860Z,5.80
2022-09-28T00:24:38.987Z,5.30
2022-09-28T00:27:07.123Z,5.60
2022-09-28T00:29:37.812Z,5.10
2022-09-28T00:32:11.850Z,5.10
2022-09-28T00:34:49.025Z,5.40
2022-09-28T00:37:21.662Z,4.90
2022-09-28T00:39:53.223Z,5.10
2022-09-28T00:42:25.509Z,5.30
2022-09-28T00:45:13.746Z,4.80
2022-09-28T00:47:56.813Z,4.70
2022-09-28T00:53:24.727Z,4.50
2022-09-28T00:55:55.923Z,4.40
2022-09-28T00:58:50.179Z,4.30
2022-09-28T01:01:21.914Z,5.40
2022-09-28T01:03:53.870Z,4.60
2022-09-28T01:06:31.239Z,4.80
2022-09-28T01:09:03.258Z,4.80
2022-09-28T01:11:33.884Z,4.00
2022-09-28T01:14:02.078Z,4.60
2022-09-28T01:16:50.830Z,5.30
2022-09-28T01:19:40.040Z,4.20
2022-09-28T01:22:26.439Z,4.20
2022-09-28T01:25:30.365Z,4.00
2022-09-28T01:28:05.310Z,4.20
2022-09-28T01:31:04.624Z,4.30
2022-09-28T01:33:44.466Z,4.30
2022-09-28T01:36:23.282Z,4.20
2022-09-28T01:39:06.814Z,4.00
2022-09-28T01:41:41.530Z,4.00
2022-09-28T01:44:15.507Z,4.70
2022-09-28T01:46:48.425Z,3.90
2022-09-28T01:52:35.099Z,3.70
2022-09-28T01:55:11.629Z,4.00
2022-09-28T01:57:49.864Z,4.20
2022-09-28T02:00:20.007Z,4.10
2022-09-28T02:03:18.926Z,4.30
2022-09-28T02:05:58.149Z,3.90
2022-09-28T02:08:41.001Z,3.90
2022-09-28T02:11:15.242Z,4.20
2022-09-28T02:14:09.419Z,4.90
2022-09-28T02:16:43.299Z,4.00
2022-09-28T02:19:19.741Z,3.90
2022-09-28T02:22:10.672Z,4.10
2022-09-28T02:25:10.271Z,4.20
2022-09-28T02:28:00.871Z,4.50
2022-09-28T02:30:35.817Z,4.60
2022-09-28T02:33:38.969Z,4.10
2022-09-28T02:36:07.579Z,3.90
2022-09-28T02:38:37.680Z,4.20
2022-09-28T02:41:24.157Z,4.40
2022-09-28T02:44:16.017Z,4.90
2022-09-28T02:47:22.702Z,4.00
2022-09-28T02:49:59.839Z,4.40
2022-09-28T02:53:07.074Z,3.70
2022-09-28T02:56:18.510Z,4.00
2022-09-28T02:59:37.646Z,4.50
2022-09-28T03:02:26.223Z,4.00
2022-09-28T03:05:22.379Z,4.50
2022-09-28T03:08:02.925Z,4.10
2022-09-28T03:11:09.621Z,3.90
2022-09-28T03:13:38.144Z,3.70
2022-09-28T03:16:18.176Z,4.60
2022-09-28T03:18:46.703Z,5.00
2022-09-28T03:21:16.233Z,3.70
2022-09-28T03:23:48.833Z,3.90
2022-09-28T03:26:20.148Z,3.90
2022-09-28T03:28:48.012Z,3.90
2022-09-28T03:31:16.109Z,3.80
2022-09-28T03:33:44.058Z,4.00
2022-09-28T03:36:15.367Z,3.70
2022-09-28T03:38:43.683Z,3.70
2022-09-28T03:41:14.578Z,4.10
2022-09-28T03:43:46.795Z,3.90
2022-09-28T03:46:20.863Z,4.30
2022-09-28T03:48:52.079Z,4.40
2022-09-28T03:51:22.968Z,4.80
2022-09-28T03:54:07.586Z,4.30
2022-09-28T03:56:41.569Z,4.80
2022-09-28T03:59:41.591Z,4.70
2022-09-28T04:02:57.926Z,4.10
2022-09-28T04:05:29.608Z,5.00
2022-09-28T04:08:01.069Z,4.10
2022-09-28T04:10:34.370Z,4.10
2022-09-28T04:13:51.158Z,4.60
2022-09-28T04:16:28.387Z,3.90
2022-09-28T04:18:59.439Z,4.70
2022-09-28T04:21:28.116Z,5.40
2022-09-28T04:23:59.723Z,4.50
2022-09-28T04:26:28.635Z,5.00
2022-09-28T04:29:15.268Z,4.40
2022-09-28T04:40:26.652Z,4.90
2022-09-28T04:42:56.312Z,5.00
2022-09-28T04:45:27.076Z,5.20
2022-09-28T04:47:55.141Z,5.70
2022-09-28T04:50:23.029Z,5.30
2022-09-28T04:52:50.870Z,6.20
2022-09-28T04:55:19.682Z,5.70
2022-09-28T04:57:58.016Z,5.50
2022-09-28T05:00:26.274Z,5.60
2022-09-28T05:02:54.374Z,5.70
2022-09-28T05:05:22.384Z,5.60
2022-09-28T05:07:50.249Z,7.10
2022-09-28T05:10:19.324Z,9.30
2022-09-28T05:12:47.251Z,8.70
2022-09-28T05:15:17.241Z,7.60
2022-09-28T05:17:53.712Z,6.90
2022-09-28T05:20:22.105Z,7.50
2022-09-28T05:22:49.905Z,7.00
2022-09-28T05:25:18.765Z,7.60
2022-09-28T05:27:46.839Z,7.40
2022-09-28T05:30:15.211Z,6.80
2022-09-28T05:32:44.387Z,6.40
2022-09-28T05:35:12.907Z,6.70
2022-09-28T05:37:41.394Z,6.50
2022-09-28T05:40:10.249Z,6.10
2022-09-28T05:42:38.387Z,6.70
2022-09-28T05:45:09.570Z,5.70
2022-09-28T05:53:20.525Z,6.80
2022-09-28T05:55:01.195Z,5.80
2022-09-28T06:10:45.553Z,5.50
2022-09-28T06:13:35.307Z,5.50
2022-09-28T06:16:05.706Z,6.30
2022-09-28T06:18:54.198Z,6.50
2022-09-28T06:21:31.455Z,6.30
2022-09-28T06:24:04.175Z,5.70
2022-09-28T06:26:32.782Z,6.10
2022-09-28T06:29:01.273Z,6.40
2022-09-28T06:31:31.439Z,6.30
2022-09-28T06:34:06.495Z,6.40
2022-09-28T06:36:37.735Z,6.60
2022-09-28T06:40:27.459Z,7.10
2022-09-28T06:43:11.333Z,8.50
2022-09-28T06:45:58.838Z,7.20
2022-09-28T06:48:38.694Z,6.80
2022-09-28T06:51:12.086Z,6.60
2022-09-28T06:53:44.198Z,6.30
2022-09-28T06:56:15.909Z,6.50
2022-09-28T06:58:46.016Z,5.90
2022-09-28T07:01:19.122Z,7.10
2022-09-28T07:04:26.644Z,6.20
2022-09-28T07:07:11.628Z,5.80
2022-09-28T07:09:46.432Z,5.60
2022-09-28T07:12:21.969Z,5.80
2022-09-28T07:14:59.893Z,4.90
2022-09-28T07:17:50.729Z,5.50
2022-09-28T07:20:28.113Z,5.00
2022-09-28T07:23:14.239Z,5.30
2022-09-28T07:25:53.280Z,4.80
2022-09-28T07:28:49.940Z,4.50
2022-09-28T07:31:28.247Z,4.80
2022-09-28T07:34:09.327Z,4.50
2022-09-28T07:36:43.049Z,5.00
2022-09-28T07:39:16.118Z,4.80
2022-09-28T07:41:49.867Z,4.20
2022-09-28T07:44:32.444Z,4.60
2022-09-28T07:47:07.516Z,4.50
2022-09-28T07:49:36.538Z,5.10
2022-09-28T07:52:07.600Z,4.80
2022-09-28T07:54:45.272Z,4.60
2022-09-28T07:57:26.882Z,4.80
2022-09-28T08:00:02.606Z,4.30
2022-09-28T08:03:43.995Z,4.70
2022-09-28T08:06:05.043Z,4.40
2022-09-28T08:08:38.537Z,4.60
2022-09-28T08:11:23.706Z,5.00
2022-09-28T08:13:57.208Z,4.20
2022-09-28T08:16:31.658Z,4.30
2022-09-28T08:19:07.940Z,4.00
2022-09-28T08:21:50.504Z,4.60
2022-09-28T08:24:26.525Z,4.30
2022-09-28T08:26:58.130Z,4.40
2022-09-28T08:29:31.130Z,3.90
2022-09-28T08:32:01.698Z,3.90
2022-09-28T08:34:49.257Z,3.40
2022-09-28T08:37:40.598Z,2.90
2022-09-28T08:40:34.030Z,3.10
2022-09-28T08:43:13.278Z,3.10
2022-09-28T08:45:42.542Z,3.10
2022-09-28T08:49:12.951Z,3.10
2022-09-28T08:51:52.363Z,2.70
2022-09-28T08:54:56.824Z,3.10
2022-09-28T08:57:34.532Z,4.00
2022-09-28T09:00:10.980Z,3.40
2022-09-28T09:02:50.980Z,3.40
2022-09-28T09:05:32.492Z,3.50
2022-09-28T09:08:53.067Z,3.70
2022-09-28T09:11:52.345Z,3.40
2022-09-28T09:14:42.790Z,3.40
2022-09-28T09:17:43.729Z,3.70
2022-09-28T09:20:23.173Z,3.60
2022-09-28T09:23:05.866Z,3.70
2022-09-28T09:25:43.422Z,3.20
2022-09-28T09:28:25.024Z,3.10
2022-09-28T09:31:26.822Z,3.20
2022-09-28T09:34:39.676Z,3.20
2022-09-28T09:37:37.753Z,3.10
2022-09-28T09:40:28.051Z,2.50
2022-09-28T09:43:56.128Z,2.50
2022-09-28T09:46:54.609Z,2.60
2022-09-28T09:50:17.246Z,2.40
2022-09-28T09:53:27.889Z,2.50
2022-09-28T09:56:16.278Z,3.00
2022-09-28T09:58:56.670Z,2.30
2022-09-28T10:01:39.121Z,1.90
2022-09-28T10:04:34.902Z,2.30
2022-09-28T10:07:35.080Z,2.50
2022-09-28T10:10:04.288Z,2.10
2022-09-28T10:12:43.988Z,2.10
2022-09-28T10:15:27.045Z,2.40
2022-09-28T10:18:07.140Z,2.30
2022-09-28T10:20:44.150Z,2.40
2022-09-28T10:23:29.861Z,2.70
2022-09-28T10:26:09.573Z,2.30
2022-09-28T10:29:17.950Z,2.80
2022-09-28T10:31:52.143Z,2.70
2022-09-28T10:34:45.457Z,2.80
2022-09-28T10:37:20.112Z,2.60
2022-09-28T10:39:56.546Z,2.30
2022-09-28T10:42:41.246Z,2.20
2022-09-28T10:45:20.500Z,2.50
2022-09-28T10:47:51.635Z,2.60
2022-09-28T10:50:24.443Z,3.00
2022-09-28T10:52:53.083Z,3.00
2022-09-28T10:55:24.664Z,2.40
2022-09-28T10:58:02.080Z,3.00
2022-09-28T11:00:45.753Z,3.10
2022-09-28T11:03:28.916Z,2.80
2022-09-28T11:06:37.122Z,2.80
2022-09-28T11:09:31.527Z,2.70
2022-09-28T11:12:06.170Z,2.60
2022-09-28T11:14:42.378Z,2.60
2022-09-28T11:17:39.769Z,3.00
2022-09-28T11:20:44.299Z,2.90
2022-09-28T11:23:33.839Z,2.20
2022-09-28T11:26:18.625Z,2.80
2022-09-28T11:29:02.147Z,2.60
2022-09-28T11:31:48.988Z,2.30
2022-09-28T11:34:57.585Z,2.20
2022-09-28T11:37:57.596Z,2.30
2022-09-28T11:40:50.873Z,2.00
2022-09-28T11:44:04.348Z,2.70
2022-09-28T11:47:03.356Z,2.50
2022-09-28T11:49:49.420Z,2.90
2022-09-28T11:52:31.921Z,2.10
2022-09-28T11:55:34.994Z,2.20
2022-09-28T11:58:37.519Z,2.60
2022-09-28T12:01:36.784Z,2.30
2022-09-28T12:04:20.487Z,2.60
2022-09-28T12:07:06.044Z,2.40
2022-09-28T12:10:17.016Z,2.40
2022-09-28T12:13:10.224Z,2.00
2022-09-28T12:20:14.980Z,2.20
2022-09-28T12:23:10.871Z,2.30
2022-09-28T12:32:42.115Z,2.50
2022-09-28T12:35:50.636Z,2.40
2022-09-28T12:38:36.792Z,2.30
2022-09-28T12:41:43.415Z,2.70
2022-09-28T12:45:23.957Z,2.30
2022-09-28T12:48:09.816Z,3.00
2022-09-28T12:51:04.545Z,3.50
2022-09-28T12:54:20.303Z,3.10
2022-09-28T12:57:12.325Z,2.90
2022-09-28T13:03:53.330Z,4.20
2022-09-28T13:07:32.634Z,3.30
2022-09-28T13:10:50.071Z,3.30
2022-09-28T13:14:32.906Z,3.40
2022-09-28T13:17:21.172Z,5.40
2022-09-28T13:20:20.264Z,3.50
2022-09-28T13:23:15.916Z,3.00
2022-09-28T13:26:10.949Z,2.50
2022-09-28T13:28:43.525Z,2.50
2022-09-28T13:31:21.113Z,2.80
2022-09-28T13:33:52.569Z,2.40
2022-09-28T13:36:33.480Z,2.30
2022-09-28T13:39:57.118Z,2.00
2022-09-28T13:42:53.600Z,2.50
2022-09-28T13:45:21.856Z,2.70
2022-09-28T13:48:13.839Z,2.50
2022-09-28T13:51:11.231Z,2.00
2022-09-28T13:54:03.426Z,1.90
2022-09-28T13:57:34.452Z,2.10
2022-09-28T14:01:21.480Z,2.40
2022-09-28T14:04:28.422Z,2.80
2022-09-28T14:07:42.064Z,2.70
2022-09-28T14:10:29.937Z,3.50
2022-09-28T14:13:04.126Z,2.80
2022-09-28T14:15:40.131Z,2.80
2022-09-28T14:18:55.198Z,2.40
2022-09-28T14:22:07.258Z,2.60
2022-09-28T14:25:17.410Z,2.70
2022-09-28T14:28:13.662Z,2.80
2022-09-28T14:30:45.406Z,3.00
2022-09-28T14:36:57.162Z,3.00
2022-09-28T14:40:04.498Z,3.30
2022-09-28T14:43:26.060Z,3.00
2022-09-28T14:46:12.942Z,2.90
2022-09-28T14:49:04.199Z,2.90
2022-09-28T14:51:38.527Z,3.00
2022-09-28T14:54:12.811Z,3.10
2022-09-28T14:56:59.043Z,3.70
2022-09-28T14:59:51.295Z,3.30
2022-09-28T15:02:35.649Z,3.40
2022-09-28T15:05:45.139Z,3.70
2022-09-28T15:08:44.438Z,4.80
2022-09-28T15:11:40.635Z,5.00
2022-09-28T15:14:16.876Z,5.80
2022-09-28T15:16:57.638Z,6.40
2022-09-28T15:20:13.155Z,6.80
2022-09-28T15:22:53.615Z,8.50
2022-09-28T15:25:49.182Z,20.50
2022-09-28T15:32:18.840Z,19.90
2022-09-28T15:35:27.260Z,16.10
2022-09-28T15:38:26.232Z,16.10
2022-09-28T15:41:08.996Z,11.70
2022-09-28T15:43:48.057Z,13.60
2022-09-28T15:46:29.298Z,13.60
2022-09-28T15:50:52.677Z,11.60
2022-09-28T15:53:19.486Z,9.20
2022-09-28T15:59:20.939Z,5.60
2022-09-28T16:02:30.217Z,5.80
2022-09-28T16:05:53.251Z,6.00
2022-09-28T16:09:09.095Z,5.70
2022-09-28T16:11:50.326Z,4.50
2022-09-28T16:14:28.618Z,4.20
2022-09-28T16:20:31.555Z,4.70
2022-09-28T16:23:47.236Z,5.30
2022-09-28T16:26:48.017Z,4.90
2022-09-28T16:34:40.248Z,6.10
2022-09-28T16:36:45.681Z,4.90
2022-09-28T16:41:34.553Z,6.70
2022-09-28T16:44:21.372Z,10.20
2022-09-28T16:46:56.806Z,8.70
2022-09-28T16:49:38.448Z,9.50
2022-09-28T16:52:34.599Z,8.00
2022-09-28T16:55:36.227Z,16.30
2022-09-28T16:58:18.467Z,19.50
2022-09-28T17:04:07.892Z,12.00
2022-09-28T17:06:55.725Z,11.50
2022-09-28T17:09:52.721Z,12.60
2022-09-28T17:12:32.632Z,13.60
2022-09-28T17:15:08.830Z,11.50
2022-09-28T17:18:43.650Z,10.80
2022-09-28T17:20:51.434Z,10.20
2022-09-28T17:25:55.896Z,9.60
2022-09-28T17:28:32.021Z,9.90
2022-09-28T17:31:41.984Z,9.40
2022-09-28T17:34:25.095Z,9.50
2022-09-28T17:36:56.296Z,10.20
2022-09-28T17:39:25.572Z,9.70
2022-09-28T17:42:02.705Z,8.70
2022-09-28T17:44:34.245Z,8.90
2022-09-28T17:47:04.175Z,7.90
2022-09-28T17:49:32.527Z,7.30
2022-09-28T17:52:19.086Z,8.90
2022-09-28T17:54:51.986Z,9.30
2022-09-28T17:57:23.835Z,8.50
2022-09-28T17:59:54.300Z,11.50
2022-09-28T18:02:24.056Z,18.90
2022-09-28T18:04:55.193Z,17.20
2022-09-28T18:07:28.836Z,15.80
2022-09-28T18:10:00.342Z,14.80
2022-09-28T18:12:42.812Z,13.60
2022-09-28T18:15:12.972Z,8.70
2022-09-28T18:17:54.053Z,8.50
2022-09-28T18:20:35.225Z,7.50
2022-09-28T18:23:27.833Z,7.80
2022-09-28T18:26:17.150Z,8.40
2022-09-28T18:28:58.656Z,9.50
2022-09-28T18:31:33.293Z,8.00
2022-09-28T18:34:05.090Z,8.10
2022-09-28T18:36:49.054Z,8.80
2022-09-28T18:39:25.325Z,9.50
2022-09-28T18:42:01.444Z,10.10
2022-09-28T18:44:31.007Z,9.50
2022-09-28T18:47:09.820Z,8.40
2022-09-28T18:50:00.403Z,9.20
2022-09-28T18:53:31.617Z,9.40
2022-09-28T18:58:15.331Z,8.40
2022-09-28T19:06:10.592Z,15.20
2022-09-28T19:09:28.377Z,15.50
2022-09-28T19:43:36.018Z,9.60
2022-09-28T19:45:21.064Z,6.90
2022-09-28T19:57:23.462Z,8.50
2022-09-28T20:01:03.677Z,9.00
2022-09-28T20:04:00.516Z,8.30
2022-09-28T20:06:30.532Z,8.10
2022-09-28T20:08:59.338Z,7.40
2022-09-28T20:21:25.182Z,9.80
2022-09-28T20:24:04.566Z,10.60
2022-09-28T20:26:38.111Z,9.50
2022-09-28T20:29:24.485Z,9.40
2022-09-28T20:32:04.303Z,10.00
2022-09-28T20:34:40.118Z,9.90
2022-09-28T20:37:17.406Z,10.40
2022-09-28T20:39:58.553Z,11.30
2022-09-28T20:42:37.552Z,10.70
2022-09-28T20:45:21.344Z,12.50
2022-09-28T20:47:57.649Z,11.50
2022-09-28T20:50:30.608Z,11.20
2022-09-28T20:56:39.623Z,10.20
2022-09-28T20:59:41.180Z,11.10
2022-09-28T21:03:02.839Z,11.80
2022-09-28T21:05:45.139Z,10.80
2022-09-28T21:08:39.700Z,11.00
2022-09-28T21:16:52.659Z,9.60
2022-09-28T21:19:35.959Z,10.30
2022-09-28T21:25:08.272Z,9.20
2022-09-28T21:27:53.604Z,8.70
2022-09-28T21:30:36.176Z,8.90
2022-09-28T21:33:53.946Z,8.50
2022-09-28T21:36:41.657Z,9.70
2022-09-28T21:39:29.760Z,10.80
2022-09-28T21:45:21.906Z,10.80
2022-09-28T21:49:58.168Z,11.30
2022-09-28T21:51:42.102Z,11.30
2022-09-28T21:55:08.084Z,10.20
2022-09-28T22:01:31.904Z,7.90
2022-09-28T22:05:09.667Z,7.70
2022-09-28T22:07:05.276Z,9.20
2022-09-28T22:07:37.912Z,8.20
2022-09-28T22:10:31.342Z,7.90
2022-09-28T22:13:01.994Z,7.90
2022-09-28T22:15:33.896Z,8.10
2022-09-28T22:18:14.206Z,8.20
2022-09-28T22:20:48.547Z,9.30
2022-09-28T22:23:32.600Z,9.00
2022-09-28T22:26:11.349Z,9.40
2022-09-28T22:29:17.560Z,10.40
2022-09-28T22:32:52.596Z,11.40
2022-09-28T22:36:34.783Z,9.80
2022-09-28T22:39:41.783Z,10.10
2022-09-28T22:44:24.793Z,10.40
2022-09-28T22:47:07.240Z,10.40
2022-09-28T22:49:59.186Z,10.00
2022-09-28T22:52:28.330Z,10.20
2022-09-28T22:55:14.449Z,10.00
2022-09-28T22:57:53.086Z,10.30
2022-09-28T23:00:25.050Z,10.60
2022-09-28T23:02:57.668Z,10.30
2022-09-28T23:05:27.012Z,10.40
2022-09-28T23:07:56.136Z,10.90
2022-09-28T23:10:25.216Z,10.40
2022-09-28T23:12:55.243Z,10.90
2022-09-28T23:15:39.040Z,11.40
2022-09-28T23:18:13.801Z,11.40
2022-09-28T23:20:44.745Z,12.50
2022-09-28T23:23:16.933Z,11.10
2022-09-28T23:25:45.158Z,12.50
2022-09-28T23:28:16.277Z,11.50
2022-09-28T23:31:20.919Z,11.60
2022-09-28T23:38:12.102Z,10.60
2022-09-28T23:40:55.366Z,10.70
2022-09-28T23:43:33.603Z,10.70
2022-09-28T23:46:25.656Z,10.20
2022-09-28T23:58:08.767Z,10.10
